createdAt,value
2022-10-17T00:04:16.258Z,4.18
2022-10-17T00:09:17.999Z,4.15
2022-10-17T00:14:19.635Z,4.10
2022-10-17T00:19:21.277Z,3.97
2022-10-17T00:24:22.870Z,4.55
2022-10-17T00:29:24.508Z,4.90
2022-10-17T00:34:28.830Z,3.83
2022-10-17T00:39:31.636Z,3.88
2022-10-17T00:44:33.523Z,3.78
2022-10-17T00:49:38.308Z,3.53
2022-10-17T00:54:43.588Z,3.78
2022-10-17T00:59:51.649Z,4.22
2022-10-17T01:04:56.455Z,4.15
2022-10-17T01:09:58.219Z,3.60
2022-10-17T01:15:19.160Z,3.88
2022-10-17T01:20:29.927Z,4.40
2022-10-17T01:25:55.971Z,4.15
2022-10-17T01:31:13.541Z,4.20
2022-10-17T01:36:44.986Z,4.70
2022-10-17T01:52:03.422Z,4.70
2022-10-17T01:57:13.056Z,5.18
2022-10-17T02:02:17.941Z,4.93
2022-10-17T02:07:21.099Z,4.97
2022-10-17T02:12:53.950Z,5.20
2022-10-17T02:18:20.510Z,5.03
2022-10-17T02:23:54.126Z,5.13
2022-10-17T02:29:01.338Z,5.15
2022-10-17T02:34:30.534Z,5.75
2022-10-17T02:39:36.527Z,5.50
2022-10-17T02:44:42.577Z,5.78
2022-10-17T02:49:53.736Z,5.70
2022-10-17T02:55:09.323Z,6.43
2022-10-17T03:00:19.068Z,6.28
2022-10-17T03:05:31.302Z,7.07
2022-10-17T03:11:05.240Z,6.47
2022-10-17T03:16:09.022Z,7.75
2022-10-17T03:21:15.064Z,6.57
2022-10-17T03:26:19.816Z,6.50
2022-10-17T03:31:25.727Z,7.05
2022-10-17T03:36:32.352Z,7.40
2022-10-17T03:41:38.706Z,7.45
2022-10-17T03:46:43.137Z,6.97
2022-10-17T03:51:47.740Z,6.95
2022-10-17T03:56:52.550Z,7.03
2022-10-17T04:01:57.290Z,7.20
2022-10-17T04:06:59.380Z,6.80
2022-10-17T04:12:02.672Z,7.22
2022-10-17T04:17:05.765Z,6.63
2022-10-17T04:22:09.226Z,7.15
2022-10-17T04:27:14.315Z,7.45
2022-10-17T04:32:21.375Z,6.75
2022-10-17T04:37:32.997Z,6.63
2022-10-17T04:42:39.645Z,6.55
2022-10-17T04:47:42.302Z,6.82
2022-10-17T04:52:44.806Z,6.30
2022-10-17T04:57:49.569Z,6.32
2022-10-17T05:03:08.043Z,6.30
2022-10-17T05:08:12.382Z,6.45
2022-10-17T05:13:20.704Z,6.90
2022-10-17T05:18:26.486Z,6.45
2022-10-17T05:23:34.398Z,6.80
2022-10-17T05:28:39.645Z,7.05
2022-10-17T05:33:46.373Z,6.32
2022-10-17T05:49:44.978Z,6.65
2022-10-17T05:54:49.398Z,6.40
2022-10-17T05:59:55.339Z,6.30
2022-10-17T06:04:57.898Z,6.30
2022-10-17T06:09:59.875Z,7.45
2022-10-17T06:15:01.921Z,6.85
2022-10-17T06:20:05.902Z,7.30
2022-10-17T06:25:08.290Z,6.68
2022-10-17T06:30:10.529Z,6.47
2022-10-17T06:35:13.028Z,6.10
2022-10-17T06:40:17.392Z,6.68
2022-10-17T06:45:20.277Z,6.13
2022-10-17T06:50:30.091Z,6.47
2022-10-17T06:55:41.145Z,6.50
2022-10-17T07:00:52.179Z,7.20
2022-10-17T07:05:55.715Z,6.88
2022-10-17T07:10:58.299Z,7.03
2022-10-17T07:16:02.191Z,6.88
2022-10-17T07:21:08.731Z,6.70
2022-10-17T07:26:14.201Z,7.00
2022-10-17T07:31:19.085Z,6.88
2022-10-17T07:36:20.968Z,6.57
2022-10-17T07:41:23.706Z,6.10
2022-10-17T07:46:26.037Z,6.57
2022-10-17T07:51:30.402Z,6.68
2022-10-17T07:56:32.463Z,6.20
2022-10-17T08:01:34.376Z,6.75
2022-10-17T08:06:36.325Z,6.35
2022-10-17T08:11:38.139Z,6.75
2022-10-17T08:16:43.259Z,6.75
2022-10-17T08:21:47.077Z,6.68
2022-10-17T08:26:51.662Z,7.32
2022-10-17T08:31:58.677Z,6.70
2022-10-17T08:37:06.856Z,6.13
2022-10-17T08:42:08.659Z,6.43
2022-10-17T08:47:15.762Z,7.05
2022-10-17T08:52:37.632Z,6.80
2022-10-17T08:57:39.185Z,6.85
2022-10-17T09:03:15.093Z,6.55
2022-10-17T09:08:28.792Z,5.93
2022-10-17T09:13:55.482Z,6.20
2022-10-17T09:19:12.491Z,5.07
2022-10-17T09:24:28.690Z,4.55
2022-10-17T09:29:35.463Z,4.82
2022-10-17T09:34:39.795Z,4.00
2022-10-17T09:39:42.834Z,4.20
2022-10-17T09:44:57.217Z,3.88
2022-10-17T09:49:58.859Z,3.42
2022-10-17T09:55:26.992Z,3.70
2022-10-17T10:00:32.750Z,3.45
2022-10-17T10:05:34.517Z,2.83
2022-10-17T10:10:36.256Z,2.65
2022-10-17T10:15:41.338Z,2.40
2022-10-17T10:20:46.783Z,2.35
2022-10-17T10:26:12.476Z,2.50
2022-10-17T10:31:14.273Z,3.53
2022-10-17T10:36:15.891Z,2.40
2022-10-17T10:41:17.522Z,2.42
2022-10-17T10:46:20.858Z,1.67
2022-10-17T10:51:47.420Z,2.42
2022-10-17T10:56:56.513Z,2.28
2022-10-17T11:02:25.173Z,2.27
2022-10-17T11:07:35.053Z,2.15
2022-10-17T11:12:48.611Z,2.30
2022-10-17T11:18:23.216Z,2.25
2022-10-17T11:23:34.462Z,1.88
2022-10-17T11:28:36.139Z,1.70
2022-10-17T11:33:56.929Z,1.63
2022-10-17T11:39:22.955Z,1.70
2022-10-17T11:44:38.050Z,1.65
2022-10-17T11:49:51.320Z,1.65
2022-10-17T11:54:59.497Z,2.58
2022-10-17T12:00:27.909Z,2.00
2022-10-17T12:05:38.837Z,1.60
2022-10-17T12:10:52.414Z,1.42
2022-10-17T12:15:58.701Z,1.40
2022-10-17T12:21:01.094Z,2.28
2022-10-17T12:26:06.494Z,1.45
2022-10-17T12:31:17.491Z,1.67
2022-10-17T12:36:21.152Z,2.00
2022-10-17T12:41:37.914Z,1.80
2022-10-17T12:46:42.388Z,1.20
2022-10-17T12:52:05.887Z,1.40
2022-10-17T12:57:35.287Z,1.20
2022-10-17T13:02:37.014Z,1.50
2022-10-17T13:07:42.941Z,1.58
2022-10-17T13:12:44.860Z,1.77
2022-10-17T13:17:55.854Z,1.73
2022-10-17T13:23:01.179Z,1.42
2022-10-17T13:28:07.614Z,1.40
2022-10-17T13:33:30.976Z,1.80
2022-10-17T13:38:36.650Z,1.50
2022-10-17T13:43:40.731Z,2.50
2022-10-17T13:48:43.579Z,1.83
2022-10-17T13:53:45.313Z,1.80
2022-10-17T13:58:50.716Z,1.77
2022-10-17T14:04:03.390Z,1.63
2022-10-17T14:09:28.899Z,1.63
2022-10-17T14:14:46.116Z,1.65
2022-10-17T14:20:34.001Z,1.58
2022-10-17T14:25:30.775Z,1.80
2022-10-17T14:30:55.815Z,1.77
2022-10-17T14:36:00.916Z,1.70
2022-10-17T14:41:40.912Z,1.60
2022-10-17T14:46:31.125Z,1.73
2022-10-17T14:51:44.699Z,2.08
2022-10-17T14:56:56.000Z,2.45
2022-10-17T15:01:57.623Z,1.95
2022-10-17T15:06:59.290Z,2.95
2022-10-17T15:12:02.678Z,2.10
2022-10-17T15:17:12.719Z,2.40
2022-10-17T15:22:16.197Z,2.80
2022-10-17T15:27:19.759Z,2.17
2022-10-17T15:32:21.548Z,2.47
2022-10-17T15:37:26.243Z,2.58
2022-10-17T15:42:29.531Z,2.90
2022-10-17T15:47:36.162Z,2.65
2022-10-17T15:52:37.760Z,2.20
2022-10-17T15:57:43.091Z,2.05
2022-10-17T16:02:45.275Z,2.55
2022-10-17T16:07:47.794Z,2.75
2022-10-17T16:12:54.726Z,2.10
2022-10-17T16:17:57.895Z,2.65
2022-10-17T16:23:03.074Z,4.55
2022-10-17T16:28:06.254Z,2.55
2022-10-17T16:33:08.175Z,2.90
2022-10-17T16:38:09.765Z,2.75
2022-10-17T16:43:13.398Z,3.33
2022-10-17T16:48:15.198Z,3.03
2022-10-17T16:53:17.038Z,3.03
2022-10-17T16:58:18.807Z,2.38
2022-10-17T17:03:20.667Z,2.95
2022-10-17T17:08:22.343Z,3.22
2022-10-17T17:13:24.098Z,2.83
2022-10-17T17:18:26.058Z,2.83
2022-10-17T17:23:28.955Z,3.70
2022-10-17T17:28:31.954Z,2.25
2022-10-17T17:33:33.842Z,2.72
2022-10-17T17:38:36.603Z,3.78
2022-10-17T17:43:38.430Z,4.43
2022-10-17T17:48:41.625Z,2.88
2022-10-17T17:53:43.708Z,2.13
2022-10-17T17:58:47.655Z,2.80
2022-10-17T18:03:54.299Z,2.58
2022-10-17T18:08:59.406Z,2.92
2022-10-17T18:14:34.440Z,2.53
2022-10-17T18:19:36.949Z,1.95
2022-10-17T18:24:39.094Z,1.77
2022-10-17T18:29:42.205Z,2.38
2022-10-17T18:34:43.987Z,2.30
2022-10-17T18:39:49.359Z,3.97
2022-10-17T18:44:51.470Z,3.03
2022-10-17T18:49:54.887Z,2.47
2022-10-17T18:54:56.705Z,2.95
2022-10-17T18:59:58.496Z,2.40
2022-10-17T19:05:02.972Z,2.60
2022-10-17T19:10:04.829Z,2.17
2022-10-17T19:15:06.858Z,2.25
2022-10-17T19:20:09.332Z,3.08
2022-10-17T19:25:10.950Z,2.25
2022-10-17T19:30:17.858Z,2.17
2022-10-17T19:35:21.563Z,1.97
2022-10-17T19:40:25.477Z,2.40
2022-10-17T19:45:27.413Z,1.80
2022-10-17T19:50:29.305Z,2.45
2022-10-17T19:55:33.422Z,2.08
2022-10-17T20:00:35.421Z,2.60
2022-10-17T20:05:38.370Z,2.00
2022-10-17T20:10:40.330Z,2.22
2022-10-17T20:15:42.436Z,2.10
2022-10-17T20:20:44.417Z,1.90
2022-10-17T20:25:46.172Z,2.25
2022-10-17T20:30:48.354Z,2.83
2022-10-17T20:35:50.791Z,1.98
2022-10-17T20:40:54.274Z,2.22
2022-10-17T20:46:03.615Z,2.75
2022-10-17T20:51:11.634Z,2.47
2022-10-17T20:56:22.901Z,2.35
2022-10-17T21:01:25.924Z,2.00
2022-10-17T21:06:27.812Z,2.17
2022-10-17T21:11:30.224Z,1.58
2022-10-17T21:16:34.519Z,2.00
2022-10-17T21:21:41.022Z,2.75
2022-10-17T21:26:45.029Z,2.55
2022-10-17T21:31:47.074Z,2.97
2022-10-17T21:36:49.888Z,1.70
2022-10-17T21:41:52.907Z,2.53
2022-10-17T21:46:55.468Z,2.85
2022-10-17T21:51:57.912Z,2.28
2022-10-17T21:57:00.032Z,2.60
2022-10-17T22:02:02.075Z,2.92
2022-10-17T22:07:04.832Z,2.08
2022-10-17T22:12:06.896Z,2.50
2022-10-17T22:17:08.538Z,2.70
2022-10-17T22:22:10.328Z,2.95
2022-10-17T22:27:12.004Z,2.72
2022-10-17T22:32:16.316Z,3.08
2022-10-17T22:37:20.435Z,2.88
2022-10-17T22:47:30.057Z,1.98
2022-10-17T22:52:32.213Z,2.15
2022-10-17T22:57:34.088Z,2.53
2022-10-17T23:02:36.104Z,2.55
2022-10-17T23:07:37.782Z,2.30
2022-10-17T23:12:39.379Z,2.53
2022-10-17T23:17:40.979Z,2.78
2022-10-17T23:22:42.576Z,2.90
2022-10-17T23:27:44.195Z,3.50
2022-10-17T23:32:45.882Z,2.40
2022-10-17T23:37:47.468Z,2.95
2022-10-17T23:42:49.164Z,2.40
2022-10-17T23:47:50.830Z,2.88
2022-10-17T23:52:52.586Z,2.42
2022-10-17T23:57:54.184Z,3.00
